ePrivacy and GPDR Cookie Consent by Cookie Consent
EmailTwitter


Surface observations / Europe / LIRF (16242)

Regions: Quebec | Canada | USA | Europe | France | UK | Elsewhere
Station
Display
Info & Location for LIRF (16242) | Help decoding METAR

Weather Conditions observed on 2021/05/08 at 03:20 UTC (LIRF)

Temperature: 13.0 Celsius.

Dewpoint: 12.0 Celsius.

Relative Humidity: 94%

Winds: Northeast at 9 km/h or 5 knots.

Mean Sea level Pressure: 101.50 kilopascals.

Coded METAR:

LIRF 080320Z 04005KT CAVOK 13/12 Q1015 NOSIG=